Time;durP1;ratioP1;P1;durP2;ratioP2;P2;SDS_P1;SDS_P2;PMS_P1;PMS_P2;Temp;Humidity;BMP_temperature;BMP_pressure;BME280_temperature;BME280_humidity;BME280_pressure;Samples;Min_cycle;Max_cycle;Signal;HPM_P1;HPM_P2
2023/10/10 00:01:04;;;;;;;3.05;1.70;;;;;;;10.21;89.49;101459.44;5092246;28;20032;-73
2023/10/10 00:03:31;;;;;;;5.07;2.38;;;;;;;10.27;89.71;101450.69;5092185;28;20031;-73
2023/10/10 00:06:06;;;;;;;5.22;2.15;;;;;;;10.29;90.43;101448.63;5074045;28;20031;-73
2023/10/10 00:08:40;;;;;;;5.45;2.28;;;;;;;10.23;89.55;101439.44;5091380;28;20031;-73
2023/10/10 00:11:14;;;;;;;4.75;2.35;;;;;;;10.32;89.73;101454.50;5075184;28;20055;-73
2023/10/10 00:13:43;;;;;;;6.07;2.55;;;;;;;10.37;90.04;101456.66;5091577;28;20478;-73
2023/10/10 00:16:26;;;;;;;5.80;2.90;;;;;;;10.39;90.39;101464.53;5090862;28;20040;-73
2023/10/10 00:18:56;;;;;;;4.57;2.67;;;;;;;10.43;89.92;101455.06;5090547;28;20498;-73
2023/10/10 00:21:28;;;;;;;6.28;2.75;;;;;;;10.37;90.83;101445.88;5092293;28;20031;-73
2023/10/10 00:23:55;;;;;;;6.80;2.72;;;;;;;10.34;90.51;101436.31;5092911;28;20051;-73
2023/10/10 00:26:25;;;;;;;9.20;2.78;;;;;;;10.35;90.66;101437.16;5107004;28;20120;-73
2023/10/10 00:28:56;;;;;;;8.07;2.80;;;;;;;10.32;90.21;101432.97;5100597;28;20252;-73
2023/10/10 00:31:22;;;;;;;5.32;2.72;;;;;;;10.33;90.81;101439.19;5085760;28;20054;-73
2023/10/10 00:33:51;;;;;;;5.05;2.67;;;;;;;10.41;90.73;101446.38;5099047;28;20031;-72
2023/10/10 00:36:22;;;;;;;5.32;2.83;;;;;;;10.37;90.75;101442.38;5093341;28;20032;-73
2023/10/10 00:38:49;;;;;;;9.07;3.30;;;;;;;10.34;90.85;101441.69;5094420;28;20161;-73
2023/10/10 00:41:15;;;;;;;5.32;3.03;;;;;;;10.35;91.33;101440.69;5091636;28;20024;-73
2023/10/10 00:43:41;;;;;;;5.25;2.60;;;;;;;10.32;90.97;101437.53;5073917;28;20032;-73
2023/10/10 00:46:11;;;;;;;5.50;2.78;;;;;;;10.07;91.35;101407.28;5091045;28;20021;-73
2023/10/10 00:48:38;;;;;;;3.30;2.13;;;;;;;10.05;91.32;101436.19;5091976;28;20098;-73
2023/10/10 00:51:05;;;;;;;4.82;2.25;;;;;;;9.91;91.20;101429.75;5089744;28;20028;-73
2023/10/10 00:53:36;;;;;;;5.72;2.20;;;;;;;9.87;91.66;101425.75;5089860;28;20052;-73
2023/10/10 00:56:06;;;;;;;5.68;2.28;;;;;;;9.82;91.13;101430.81;5089754;28;20036;-73
2023/10/10 00:58:53;;;;;;;3.55;2.10;;;;;;;9.75;91.33;101436.09;5091151;28;20028;-73
2023/10/10 01:01:19;;;;;;;3.90;2.42;;;;;;;9.68;91.12;101419.00;5073910;28;20028;-73
2023/10/10 01:04:07;;;;;;;4.65;2.50;;;;;;;9.64;91.83;101420.38;5092425;28;20483;-73
2023/10/10 01:06:39;;;;;;;4.70;2.33;;;;;;;9.63;90.65;101416.00;5090855;28;20514;-73
2023/10/10 01:09:20;;;;;;;4.10;2.30;;;;;;;9.51;91.38;101412.91;5060434;28;20062;-73
2023/10/10 01:11:51;;;;;;;8.20;2.78;;;;;;;9.34;90.95;101393.34;5095535;28;20071;-73
2023/10/10 01:14:18;;;;;;;5.85;2.42;;;;;;;9.41;91.28;101407.75;5103005;28;20039;-73
2023/10/10 01:16:47;;;;;;;5.47;2.38;;;;;;;9.43;91.27;101406.72;5102377;28;20031;-73
2023/10/10 01:19:17;;;;;;;5.00;2.42;;;;;;;9.36;91.29;101399.38;5089611;28;20032;-73
2023/10/10 01:21:50;;;;;;;3.50;2.13;;;;;;;9.44;90.65;101400.34;5096949;28;20036;-73
2023/10/10 01:24:17;;;;;;;8.82;2.70;;;;;;;9.45;90.70;101400.16;5098391;28;20241;-73
2023/10/10 01:26:47;;;;;;;7.88;2.53;;;;;;;9.47;91.02;101394.59;5100712;28;20012;-73
2023/10/10 01:31:54;;;;;;;3.72;2.40;;;;;;;9.50;90.86;101389.72;5094815;28;20081;-73
2023/10/10 01:34:30;;;;;;;5.40;2.70;;;;;;;9.45;91.22;101385.91;5095470;28;20036;-73
2023/10/10 01:37:22;;;;;;;4.68;2.00;;;;;;;9.54;91.02;101403.66;5094820;28;20028;-73
2023/10/10 01:40:39;;;;;;;5.68;2.83;;;;;;;9.56;90.46;101410.50;5094125;28;20027;-73
2023/10/10 01:42:51;;;;;;;4.40;2.53;;;;;;;9.54;90.86;101411.72;5096543;28;20032;-73
2023/10/10 01:45:19;;;;;;;3.22;1.90;;;;;;;9.50;91.24;101411.19;5095146;28;20035;-73
2023/10/10 01:47:56;;;;;;;3.97;2.00;;;;;;;9.51;91.01;101414.75;5096449;28;20052;-73
2023/10/10 01:50:25;;;;;;;3.70;2.10;;;;;;;9.31;91.25;101390.19;5093709;28;20478;-73
2023/10/10 01:52:51;;;;;;;4.88;2.13;;;;;;;9.43;90.85;101409.41;5094690;28;20056;-73
2023/10/10 01:55:17;;;;;;;4.88;2.30;;;;;;;9.36;90.83;101398.53;5081095;28;20509;-73
2023/10/10 01:57:42;;;;;;;5.07;2.30;;;;;;;9.24;91.62;101371.25;5099527;28;20024;-73
2023/10/10 02:02:50;;;;;;;8.00;2.28;;;;;;;9.31;91.06;101392.88;5104323;28;20110;-73
2023/10/10 02:05:30;;;;;;;5.32;2.40;;;;;;;9.26;91.36;101396.06;5095349;28;20090;-73
2023/10/10 02:07:57;;;;;;;4.13;1.92;;;;;;;9.23;90.95;101384.84;5094676;28;20035;-73
2023/10/10 02:10:26;;;;;;;4.63;2.40;;;;;;;9.14;91.02;101374.16;5100587;28;20051;-72
2023/10/10 02:12:51;;;;;;;4.70;2.50;;;;;;;8.99;91.11;101356.28;5099430;28;20039;-73
2023/10/10 02:15:26;;;;;;;5.35;2.35;;;;;;;9.16;91.58;101390.09;5105984;28;20039;-73
2023/10/10 02:17:54;;;;;;;5.80;2.35;;;;;;;9.10;91.30;101370.13;5094356;28;20036;-72
2023/10/10 02:22:53;;;;;;;3.55;2.15;;;;;;;9.15;91.59;101366.94;5095061;28;20077;-73
2023/10/10 02:27:55;;;;;;;4.65;2.15;;;;;;;9.12;91.71;101354.69;5095171;28;20035;-73
2023/10/10 02:30:34;;;;;;;6.10;2.33;;;;;;;9.00;91.95;101345.34;5094612;28;20031;-73
2023/10/10 02:35:56;;;;;;;4.45;2.50;;;;;;;8.91;92.32;101347.25;5094602;28;20028;-73
2023/10/10 02:38:33;;;;;;;5.55;2.78;;;;;;;8.92;91.92;101356.16;5092526;28;20110;-72
2023/10/10 02:44:04;;;;;;;5.05;2.97;;;;;;;8.85;92.07;101350.63;5095023;28;20027;-73
2023/10/10 02:46:36;;;;;;;7.10;2.45;;;;;;;8.85;92.10;101350.63;5093930;28;20074;-73
2023/10/10 02:49:12;;;;;;;4.88;2.70;;;;;;;8.80;92.33;101333.38;5093564;28;20020;-73
2023/10/10 02:51:48;;;;;;;5.90;2.50;;;;;;;8.95;93.06;101342.38;5087646;28;20085;-73
2023/10/10 02:56:57;;;;;;;6.47;2.80;;;;;;;8.95;93.07;101345.06;5093929;28;20494;-73
2023/10/10 02:59:37;;;;;;;3.67;2.70;;;;;;;8.96;93.62;101337.84;5076201;28;20095;-73
2023/10/10 03:02:18;;;;;;;3.63;2.60;;;;;;;8.88;93.93;101328.00;5097313;28;20042;-72
2023/10/10 03:07:28;;;;;;;4.10;2.17;;;;;;;8.89;94.12;101332.34;5096847;28;20034;-73
2023/10/10 03:10:22;;;;;;;4.78;2.00;;;;;;;8.94;94.21;101332.66;5093313;28;20080;-73
2023/10/10 03:12:52;;;;;;;4.53;2.30;;;;;;;8.92;93.92;101345.41;5099603;28;20020;-73
2023/10/10 03:17:51;;;;;;;3.80;2.00;;;;;;;8.88;94.14;101326.13;5106851;28;20414;-73
2023/10/10 03:26:05;;;;;;;6.15;2.33;;;;;;;9.01;95.32;101332.81;5093149;28;20044;-73
2023/10/10 03:28:47;;;;;;;6.85;2.38;;;;;;;8.90;95.04;101299.94;5092797;28;20039;-73
2023/10/10 05:23:29;;;;;;;5.07;2.35;;;;;;;9.04;95.56;101311.81;5091857;28;20038;-73
2023/10/10 05:25:24;;;;;;;4.38;2.55;;;;;;;9.87;98.16;101305.63;5091555;28;20069;-74
2023/10/10 05:27:58;;;;;;;5.80;1.98;;;;;;;9.90;98.40;101307.13;5090089;28;20029;-74
2023/10/10 05:33:08;;;;;;;5.60;2.17;;;;;;;9.74;98.01;101283.09;5093386;28;20062;-73
2023/10/10 05:35:36;;;;;;;3.95;1.98;;;;;;;9.73;98.85;101281.41;5089620;28;20036;-74
2023/10/10 05:38:04;;;;;;;5.68;2.10;;;;;;;9.82;98.43;101299.97;5103006;28;20036;-73
2023/10/10 05:40:33;;;;;;;6.05;1.88;;;;;;;9.95;98.82;101301.19;5098385;28;20111;-74
2023/10/10 05:42:59;;;;;;;2.63;1.52;;;;;;;10.08;98.68;101301.41;5081036;28;20020;-73
2023/10/10 05:45:24;;;;;;;3.78;1.67;;;;;;;10.14;98.70;101292.59;5094183;28;20051;-75
2023/10/10 05:47:50;;;;;;;3.05;1.52;;;;;;;10.12;98.81;101273.13;5074703;28;20046;-75
2023/10/10 05:50:18;;;;;;;4.10;1.63;;;;;;;10.03;99.20;101267.00;5093422;28;20035;-75
2023/10/10 05:52:44;;;;;;;3.28;1.35;;;;;;;10.15;99.57;101270.06;5092399;28;20052;-75
2023/10/10 05:55:14;;;;;;;4.95;1.50;;;;;;;10.17;99.25;101272.59;5094306;28;20032;-75
2023/10/10 05:57:40;;;;;;;5.30;1.80;;;;;;;10.09;99.67;101247.44;5078573;28;20024;-75
2023/10/10 06:00:11;;;;;;;3.97;1.50;;;;;;;10.35;99.62;101281.97;5094440;28;20398;-74
2023/10/10 06:02:37;;;;;;;7.13;1.30;;;;;;;10.49;99.48;101282.13;5094717;28;20035;-75
2023/10/10 06:05:08;;;;;;;5.40;1.60;;;;;;;10.55;99.38;101265.25;5093445;28;20028;-74
2023/10/10 06:07:37;;;;;;;3.22;1.38;;;;;;;10.50;99.73;101256.94;5097092;28;20305;-74
2023/10/10 06:10:14;;;;;;;5.43;1.52;;;;;;;10.32;99.87;101212.41;5104451;28;20028;-74
2023/10/10 06:12:40;;;;;;;9.45;1.50;;;;;;;10.67;100.00;101271.00;5094990;28;20131;-74
2023/10/10 06:15:06;;;;;;;7.82;1.48;;;;;;;10.65;100.00;101260.41;5095293;28;20459;-74
2023/10/10 06:17:34;;;;;;;6.88;1.60;;;;;;;10.79;100.00;101264.09;5093269;28;20097;-74
2023/10/10 06:20:06;;;;;;;8.15;1.60;;;;;;;10.88;100.00;101265.66;5094090;28;20028;-74
2023/10/10 06:22:32;;;;;;;5.95;2.03;;;;;;;10.89;100.00;101255.72;5092979;28;20027;-74
2023/10/10 06:24:58;;;;;;;8.52;1.60;;;;;;;10.87;100.00;101247.84;5094585;28;20479;-74
2023/10/10 06:27:28;;;;;;;7.97;1.60;;;;;;;11.07;100.00;101263.38;5077656;28;20142;-74
2023/10/10 06:29:59;;;;;;;5.20;1.90;;;;;;;11.13;100.00;101251.84;5099197;28;20096;-74
2023/10/10 06:32:26;;;;;;;8.23;1.77;;;;;;;11.21;100.00;101255.22;5096266;28;20036;-74
2023/10/10 06:35:14;;;;;;;7.57;1.75;;;;;;;11.21;100.00;101252.53;5101587;28;20096;-74
2023/10/10 06:37:38;;;;;;;5.55;1.42;;;;;;;11.40;100.00;101258.31;5096246;28;20032;-74
2023/10/10 06:40:08;;;;;;;7.57;1.70;;;;;;;11.54;100.00;101249.31;5093851;28;20047;-74
2023/10/10 06:42:34;;;;;;;7.13;1.85;;;;;;;11.63;100.00;101252.72;5096434;28;20063;-74
2023/10/10 06:45:07;;;;;;;7.40;2.10;;;;;;;11.73;100.00;101256.72;5081854;28;20027;-74
2023/10/10 06:47:39;;;;;;;8.50;1.92;;;;;;;11.84;100.00;101246.44;5094928;28;20382;-74
2023/10/10 06:50:11;;;;;;;8.20;1.88;;;;;;;11.97;100.00;101252.78;5094509;28;20032;-74
2023/10/10 06:52:43;;;;;;;10.00;1.98;;;;;;;11.97;100.00;101236.59;5092917;28;20051;-74
2023/10/10 06:55:12;;;;;;;9.55;1.80;;;;;;;12.16;100.00;101248.53;5092807;28;20028;-74
2023/10/10 06:57:38;;;;;;;7.38;1.85;;;;;;;12.27;100.00;101247.16;5093119;28;20383;-74
2023/10/10 07:00:27;;;;;;;14.75;1.80;;;;;;;12.33;100.00;101250.91;5092100;28;20088;-74
2023/10/10 07:02:55;;;;;;;7.97;1.40;;;;;;;12.41;100.00;101253.44;5093663;28;20502;-74
2023/10/10 07:05:26;;;;;;;10.63;1.75;;;;;;;12.48;100.00;101256.16;5093589;28;20107;-74
2023/10/10 07:07:57;;;;;;;11.70;1.75;;;;;;;12.54;100.00;101242.69;5094518;28;20040;-74
2023/10/10 07:10:26;;;;;;;10.18;1.95;;;;;;;12.50;100.00;101235.22;5093736;28;20027;-74
2023/10/10 07:12:54;;;;;;;11.82;1.88;;;;;;;12.60;100.00;101232.97;5093756;28;20039;-74
2023/10/10 07:15:21;;;;;;;5.95;1.20;;;;;;;12.62;100.00;101237.16;5075641;28;20390;-74
2023/10/10 07:17:49;;;;;;;11.77;1.40;;;;;;;12.72;100.00;101235.94;5095220;28;20018;-74
2023/10/10 07:22:47;;;;;;;9.35;1.50;;;;;;;12.89;100.00;101231.81;5105164;28;20119;-74
2023/10/10 07:27:56;;;;;;;11.50;1.63;;;;;;;13.11;100.00;101225.22;5093389;28;20030;-75
2023/10/10 07:30:33;;;;;;;8.18;1.17;;;;;;;13.20;100.00;101227.72;5091777;28;20028;-75
2023/10/10 07:33:01;;;;;;;8.98;1.17;;;;;;;13.23;100.00;101208.41;5094732;28;20024;-74
2023/10/10 07:35:28;;;;;;;11.05;1.48;;;;;;;13.45;100.00;101220.72;5096693;28;20028;-74
2023/10/10 07:37:58;;;;;;;7.65;1.50;;;;;;;13.60;100.00;101229.41;5094904;28;20028;-74
2023/10/10 07:40:31;;;;;;;7.82;1.20;;;;;;;13.74;100.00;101232.13;5075416;28;20056;-74
2023/10/10 07:42:59;;;;;;;7.32;1.10;;;;;;;13.91;100.00;101227.97;5094331;28;20035;-74
2023/10/10 07:45:30;;;;;;;6.15;1.08;;;;;;;14.04;100.00;101236.06;5093580;28;20099;-75
2023/10/10 07:50:35;;;;;;;6.70;0.95;;;;;;;14.20;100.00;101215.78;5091164;28;20063;-75
2023/10/10 07:53:06;;;;;;;4.13;0.88;;;;;;;14.25;100.00;101221.41;5092150;28;20055;-75
2023/10/10 07:55:52;;;;;;;5.70;0.80;;;;;;;14.24;100.00;101202.69;5093170;28;20024;-75
2023/10/10 07:58:24;;;;;;;8.07;1.08;;;;;;;14.23;100.00;101219.94;5099457;28;20016;-74
2023/10/10 08:00:52;;;;;;;5.38;0.85;;;;;;;14.28;100.00;101218.28;5080597;28;20402;-74
2023/10/10 08:03:20;;;;;;;8.25;1.70;;;;;;;14.32;100.00;101215.97;5091813;28;20471;-75
2023/10/10 08:05:50;;;;;;;8.52;1.30;;;;;;;14.47;100.00;101210.28;5091806;28;20444;-74
2023/10/10 08:08:20;;;;;;;5.97;0.98;;;;;;;14.51;100.00;101215.09;5091716;28;20051;-74
2023/10/10 08:10:51;;;;;;;3.80;1.00;;;;;;;14.62;100.00;101215.47;5096256;28;20457;-74
2023/10/10 08:13:17;;;;;;;3.03;0.73;;;;;;;14.71;100.00;101214.19;5096058;28;20031;-74
2023/10/10 08:15:56;;;;;;;9.05;1.80;;;;;;;14.71;100.00;101206.06;5107154;28;20028;-74
2023/10/10 08:21:10;;;;;;;3.78;0.75;;;;;;;14.88;98.55;101204.50;5092430;28;20032;-74
2023/10/10 08:23:42;;;;;;;5.95;0.80;;;;;;;14.90;97.68;101191.56;5092383;28;20027;-75
2023/10/10 08:26:26;;;;;;;7.60;0.98;;;;;;;14.98;97.56;101201.31;5091175;28;20028;-74
2023/10/10 08:28:53;;;;;;;6.15;1.00;;;;;;;15.21;96.45;101204.25;5092709;28;20020;-74
2023/10/10 08:31:19;;;;;;;7.45;1.20;;;;;;;15.38;95.66;101199.13;5092700;28;20123;-74
2023/10/10 08:33:47;;;;;;;6.85;1.00;;;;;;;15.35;95.43;101180.59;5092181;28;20470;-75
2023/10/10 08:36:26;;;;;;;7.80;0.93;;;;;;;15.48;94.93;101191.31;5093972;28;20055;-74
2023/10/10 08:38:56;;;;;;;6.05;1.73;;;;;;;15.61;94.49;101194.97;5094367;28;20028;-74
2023/10/10 08:41:26;;;;;;;6.43;0.93;;;;;;;15.73;93.87;101201.38;5091109;28;20089;-74
2023/10/10 08:43:58;;;;;;;3.95;0.90;;;;;;;15.74;93.66;101198.41;5096483;28;20024;-75
2023/10/10 08:46:40;;;;;;;5.68;0.88;;;;;;;15.76;93.48;101170.22;5079697;28;20402;-74
2023/10/10 08:49:07;;;;;;;6.20;1.05;;;;;;;15.82;92.93;101194.56;5091511;28;20025;-74
2023/10/10 08:51:34;;;;;;;4.50;0.93;;;;;;;15.90;92.48;101182.63;5092688;28;20023;-75
2023/10/10 08:54:09;;;;;;;7.75;1.08;;;;;;;15.98;92.58;101180.41;5090515;28;20571;-74
2023/10/10 08:56:42;;;;;;;4.40;0.77;;;;;;;16.02;91.42;101179.97;5091411;28;20698;-75
2023/10/10 08:59:09;;;;;;;6.05;0.90;;;;;;;15.80;91.26;101157.88;5098529;28;20233;-74
2023/10/10 09:01:38;;;;;;;8.00;0.90;;;;;;;15.97;90.23;101181.47;5093116;28;20024;-74
2023/10/10 09:04:04;;;;;;;4.28;0.70;;;;;;;15.97;89.76;101197.75;5092679;28;20526;-75
2023/10/10 09:06:51;;;;;;;5.47;0.70;;;;;;;15.95;89.05;101185.47;5103731;28;20024;-75
2023/10/10 09:09:37;;;;;;;3.75;0.60;;;;;;;15.83;88.24;101187.28;5103676;28;20035;-74
2023/10/10 09:12:04;;;;;;;3.50;0.60;;;;;;;15.83;87.76;101179.97;5090577;28;20059;-74
2023/10/10 09:14:43;;;;;;;3.72;0.60;;;;;;;15.88;86.78;101180.09;5090734;28;20085;-74
2023/10/10 09:17:11;;;;;;;4.78;1.00;;;;;;;16.02;86.48;101186.22;5091780;28;20020;-75
2023/10/10 09:19:49;;;;;;;3.28;0.85;;;;;;;16.12;86.65;101170.22;5090397;28;20094;-75
2023/10/10 09:22:29;;;;;;;4.78;0.70;;;;;;;16.23;86.43;101174.09;5091386;28;20028;-74
2023/10/10 09:24:59;;;;;;;4.40;0.85;;;;;;;16.37;85.65;101177.47;5090343;28;20090;-75
2023/10/10 09:27:28;;;;;;;2.97;0.80;;;;;;;16.41;85.18;101155.03;5074324;28;20035;-74
2023/10/10 09:29:56;;;;;;;3.25;0.93;;;;;;;16.46;84.75;101165.22;5075952;28;20482;-75
2023/10/10 09:32:42;;;;;;;5.45;0.80;;;;;;;16.43;84.63;101150.22;5095718;28;20028;-75
2023/10/10 09:35:08;;;;;;;4.70;0.70;;;;;;;16.31;85.23;101146.59;5079725;28;20050;-74
2023/10/10 09:37:38;;;;;;;3.65;0.70;;;;;;;16.56;84.94;101165.50;5096358;28;20058;-75
2023/10/10 09:40:07;;;;;;;5.55;0.80;;;;;;;16.53;84.96;101151.56;5097563;28;20111;-74
2023/10/10 09:43:03;;;;;;;7.80;1.75;;;;;;;16.59;84.32;101128.91;5106460;28;20031;-73
2023/10/10 09:46:19;;;;;;;8.38;3.10;;;;;;;16.83;83.97;101148.84;5100764;28;20039;-75
2023/10/10 09:49:09;;;;;;;9.13;3.27;;;;;;;16.83;83.79;101141.53;5089339;28;20028;-75
2023/10/10 09:54:16;;;;;;;39.05;21.13;;;;;;;16.89;82.75;101154.19;5044887;28;20053;-75
2023/10/10 09:56:51;;;;;;;4.80;1.65;;;;;;;16.86;82.23;101151.94;5095423;28;20280;-75
2023/10/10 09:59:28;;;;;;;4.07;1.10;;;;;;;16.81;81.71;101151.78;5094197;28;20065;-74
2023/10/10 10:01:59;;;;;;;3.95;0.93;;;;;;;16.84;80.95;101153.22;5081141;28;20123;-74
2023/10/10 10:04:30;;;;;;;3.72;0.90;;;;;;;16.78;80.94;101149.53;5097598;28;20035;-74
2023/10/10 10:07:14;;;;;;;6.60;1.05;;;;;;;16.93;80.36;101149.13;5093797;28;20478;-75
2023/10/10 10:10:09;;;;;;;3.92;0.88;;;;;;;17.09;79.39;101134.03;5098104;28;20028;-74
2023/10/10 10:13:02;;;;;;;3.00;0.70;;;;;;;17.05;79.33;101141.81;5106974;28;20115;-74
2023/10/10 10:15:50;;;;;;;3.03;0.60;;;;;;;17.00;78.85;101135.41;5093452;28;20036;-74
2023/10/10 10:18:28;;;;;;;4.63;0.70;;;;;;;17.00;79.04;101127.25;5094254;28;20051;-75
2023/10/10 10:23:45;;;;;;;4.82;0.93;;;;;;;17.02;78.79;101116.97;5094487;28;20053;-74
2023/10/10 10:26:11;;;;;;;4.65;0.80;;;;;;;17.14;78.61;101121.38;5094064;28;20103;-74
2023/10/10 10:28:38;;;;;;;3.03;0.73;;;;;;;17.20;78.08;101107.91;5094566;28;20038;-74
2023/10/10 10:31:27;;;;;;;3.00;0.70;;;;;;;17.43;77.89;101134.28;5095507;28;20495;-75
2023/10/10 10:34:07;;;;;;;2.10;0.63;;;;;;;17.32;77.45;101123.16;5094277;28;20028;-74
2023/10/10 10:36:41;;;;;;;5.25;0.73;;;;;;;17.43;77.16;101129.66;5094150;28;20024;-75
2023/10/10 10:39:37;;;;;;;6.35;1.00;;;;;;;17.59;77.20;101125.41;5093430;28;20047;-74
2023/10/10 10:42:11;;;;;;;5.65;0.70;;;;;;;17.40;77.55;101113.00;5108070;28;20442;-74
2023/10/10 10:44:58;;;;;;;2.60;0.63;;;;;;;17.34;77.73;101126.47;5094010;28;20036;-74
2023/10/10 10:47:38;;;;;;;3.03;0.60;;;;;;;17.40;78.19;101127.41;5094380;28;20562;-74
2023/10/10 10:50:05;;;;;;;2.45;0.70;;;;;;;17.47;78.05;101128.13;5092866;28;20031;-74
2023/10/10 10:53:05;;;;;;;3.45;0.70;;;;;;;17.33;78.15;101124.81;5092904;28;20044;-74
2023/10/10 10:55:30;;;;;;;3.78;0.93;;;;;;;17.21;78.29;101132.13;5100044;28;20857;-74
2023/10/10 11:03:35;;;;;;;2.13;0.70;;;;;;;17.11;78.00;101105.50;5093437;28;20049;-74
2023/10/10 11:06:09;;;;;;;3.80;0.80;;;;;;;17.37;77.52;101126.00;5094430;28;20396;-75
2023/10/10 11:14:01;;;;;;;3.65;0.93;;;;;;;17.39;75.65;101106.72;5082286;28;20044;-74
2023/10/10 11:16:37;;;;;;;2.15;0.60;;;;;;;17.38;75.43;101105.91;5094522;28;20024;-74
2023/10/10 11:21:57;;;;;;;3.47;0.70;;;;;;;17.56;75.42;101115.81;5095944;28;20087;-75
2023/10/10 11:24:25;;;;;;;1.85;0.60;;;;;;;17.60;75.91;101097.13;5094383;28;20394;-74
2023/10/10 11:30:00;;;;;;;1.55;0.55;;;;;;;17.64;76.30;101092.84;5092544;28;20089;-74
2023/10/10 11:32:36;;;;;;;3.47;0.63;;;;;;;17.69;76.72;101087.53;5077183;28;20132;-74
2023/10/10 11:35:22;;;;;;;2.00;0.63;;;;;;;17.72;77.40;101080.78;5093552;28;20056;-75
2023/10/10 11:37:49;;;;;;;4.22;1.00;;;;;;;17.65;77.77;101070.03;5091976;28;20046;-74
2023/10/10 11:42:59;;;;;;;2.33;0.80;;;;;;;17.83;78.69;101074.50;5093542;28;20020;-74
2023/10/10 11:45:28;;;;;;;2.05;0.60;;;;;;;17.75;79.60;101072.16;5091851;28;20035;-74
2023/10/10 11:48:05;;;;;;;2.40;0.68;;;;;;;17.78;79.78;101061.63;5102426;28;20165;-74
2023/10/10 11:50:45;;;;;;;3.53;0.60;;;;;;;17.70;80.64;101055.69;5093598;28;20479;-74
2023/10/10 11:53:24;;;;;;;2.33;0.70;;;;;;;17.60;81.39;101050.84;5092325;28;20056;-74
2023/10/10 11:55:52;;;;;;;3.08;0.88;;;;;;;17.60;81.86;101046.25;5092675;28;20073;-74
2023/10/10 11:58:18;;;;;;;3.13;0.90;;;;;;;17.40;82.63;101031.38;5090000;28;20032;-75
2023/10/10 12:00:45;;;;;;;3.25;0.95;;;;;;;17.54;82.86;101049.09;5089952;28;20031;-74
2023/10/10 12:03:19;;;;;;;4.97;1.10;;;;;;;17.53;83.52;101044.72;5056564;28;20043;-74
2023/10/10 12:05:48;;;;;;;3.80;0.80;;;;;;;17.50;83.90;101037.03;5090030;28;20077;-74
2023/10/10 12:08:22;;;;;;;4.82;1.13;;;;;;;17.34;84.69;101011.41;5096799;28;20111;-74
2023/10/10 12:10:52;;;;;;;5.97;1.20;;;;;;;17.34;85.04;101017.66;5073279;28;20026;-74
2023/10/10 12:16:00;;;;;;;4.38;0.90;;;;;;;17.24;86.32;101005.72;5089959;28;20081;-74
2023/10/10 12:18:30;;;;;;;3.22;1.17;;;;;;;17.20;87.27;100985.53;5073342;28;20488;-74
2023/10/10 12:20:57;;;;;;;3.70;0.93;;;;;;;17.13;87.90;100988.38;5073810;28;20039;-74
2023/10/10 12:23:23;;;;;;;2.97;1.00;;;;;;;17.11;88.31;100985.88;5089644;28;20085;-74
2023/10/10 12:25:49;;;;;;;3.55;0.80;;;;;;;17.24;88.24;100986.69;5056618;28;20116;-74
2023/10/10 12:28:17;;;;;;;2.35;0.80;;;;;;;17.16;88.01;100970.75;5073199;28;20115;-74
2023/10/10 12:30:43;;;;;;;6.82;0.90;;;;;;;17.16;88.65;100982.47;5091184;28;20038;-74
2023/10/10 12:33:11;;;;;;;6.55;1.00;;;;;;;17.07;89.26;100979.28;5090919;28;20027;-74
2023/10/10 12:35:37;;;;;;;2.58;0.70;;;;;;;16.96;89.99;100976.56;5092351;28;20107;-74
2023/10/10 12:38:02;;;;;;;3.75;0.85;;;;;;;16.99;90.39;100973.38;5074689;28;20119;-74
2023/10/10 12:40:33;;;;;;;3.67;0.90;;;;;;;17.06;90.15;100963.22;5096213;28;20032;-74
2023/10/10 12:43:00;;;;;;;3.45;0.75;;;;;;;17.07;89.87;100952.09;5093951;28;20032;-74
2023/10/10 12:45:26;;;;;;;2.67;0.70;;;;;;;17.17;88.90;100961.53;5091201;28;20500;-74
2023/10/10 12:47:53;;;;;;;2.85;0.90;;;;;;;17.17;88.98;100950.66;5091129;28;20107;-75
2023/10/10 12:50:26;;;;;;;3.15;1.08;;;;;;;17.18;87.91;100927.81;5090648;28;20071;-74
2023/10/10 12:53:02;;;;;;;3.92;0.95;;;;;;;17.07;87.93;100915.91;5107065;28;20561;-74
2023/10/10 12:55:28;;;;;;;6.05;1.10;;;;;;;16.93;86.96;100871.88;5077018;28;20052;-74
2023/10/10 12:57:54;;;;;;;2.70;0.90;;;;;;;17.17;87.13;100913.41;5073729;28;20032;-74
2023/10/10 13:00:33;;;;;;;6.13;1.55;;;;;;;17.14;87.18;100911.16;5091589;28;20078;-74
2023/10/10 13:02:58;;;;;;;3.58;1.13;;;;;;;17.19;87.21;100905.84;5090611;28;20028;-74
2023/10/10 13:05:27;;;;;;;6.80;1.30;;;;;;;17.20;87.45;100898.50;5076580;28;20122;-74
2023/10/10 13:07:55;;;;;;;5.32;1.50;;;;;;;17.28;87.06;100893.50;5096042;28;20055;-74
2023/10/10 13:10:26;;;;;;;5.35;1.20;;;;;;;17.11;88.35;100881.75;5094467;28;20414;-74
2023/10/10 13:12:52;;;;;;;8.43;1.50;;;;;;;17.12;89.06;100891.56;5080307;28;20027;-74
2023/10/10 13:15:18;;;;;;;5.53;1.48;;;;;;;17.01;90.29;100884.25;5083712;28;20432;-74
2023/10/10 13:18:11;;;;;;;4.75;1.45;;;;;;;16.99;91.55;100894.56;5094780;28;20028;-74
2023/10/10 13:20:38;;;;;;;6.03;1.70;;;;;;;16.77;93.48;100883.47;5081391;28;20064;-74
2023/10/10 13:23:06;;;;;;;7.85;1.77;;;;;;;16.68;94.24;100882.97;5095927;28;20088;-74
2023/10/10 13:25:37;;;;;;;5.80;1.67;;;;;;;16.67;94.29;100867.72;5094273;28;20024;-74
2023/10/10 13:28:09;;;;;;;6.13;1.80;;;;;;;16.54;96.07;100881.56;5094474;28;20028;-73
2023/10/10 13:30:41;;;;;;;6.13;1.55;;;;;;;16.44;97.10;100860.41;5095563;28;20028;-74
2023/10/10 13:33:07;;;;;;;8.25;1.60;;;;;;;16.34;97.69;100860.19;5101372;28;20048;-73
2023/10/10 13:35:37;;;;;;;5.43;1.75;;;;;;;16.11;99.48;100844.72;5096977;28;20035;-73
2023/10/10 13:38:03;;;;;;;6.47;1.90;;;;;;;16.22;99.79;100852.03;5077699;28;20032;-73
2023/10/10 13:40:37;;;;;;;9.38;1.80;;;;;;;16.15;100.00;100843.16;5077450;28;20046;-73
2023/10/10 13:43:08;;;;;;;12.90;1.97;;;;;;;15.92;100.00;100809.50;5094007;28;20547;-73
2023/10/10 13:45:35;;;;;;;9.27;1.52;;;;;;;15.87;100.00;100816.72;5095954;28;20016;-72
2023/10/10 13:48:01;;;;;;;10.85;1.90;;;;;;;15.79;100.00;100809.72;5081145;28;20024;-73
2023/10/10 13:50:31;;;;;;;14.40;2.58;;;;;;;15.92;100.00;100828.50;5079539;28;20031;-73
2023/10/10 13:52:58;;;;;;;11.15;2.33;;;;;;;15.77;100.00;100825.44;5094415;28;20077;-72
2023/10/10 13:55:24;;;;;;;16.17;2.38;;;;;;;15.72;100.00;100825.28;5093423;28;20031;-72
2023/10/10 13:57:49;;;;;;;8.88;2.05;;;;;;;15.71;100.00;100804.66;5093739;28;20041;-73
2023/10/10 14:00:33;;;;;;;11.02;1.95;;;;;;;15.66;100.00;100815.34;5076766;28;20110;-72
2023/10/10 14:03:05;;;;;;;11.30;1.88;;;;;;;15.60;100.00;100797.31;5080992;28;20130;-72
2023/10/10 14:05:33;;;;;;;10.50;2.10;;;;;;;15.61;100.00;100801.66;5103638;28;20452;-72
2023/10/10 14:08:02;;;;;;;10.98;1.98;;;;;;;15.68;100.00;100805.13;5093587;28;20024;-73
2023/10/10 14:10:34;;;;;;;15.15;2.25;;;;;;;15.60;100.00;100781.84;5093504;28;20024;-73
2023/10/10 14:13:17;;;;;;;10.75;2.10;;;;;;;15.58;100.00;100764.16;5098235;28;20107;-72
2023/10/10 14:15:43;;;;;;;14.25;2.28;;;;;;;15.50;100.00;100760.72;5078786;28;20024;-73
2023/10/10 14:18:09;;;;;;;11.32;2.10;;;;;;;15.64;100.00;100768.66;5093658;28;20020;-73
2023/10/10 14:20:34;;;;;;;7.75;2.10;;;;;;;15.64;100.00;100764.03;5076326;28;20478;-72
2023/10/10 14:23:00;;;;;;;12.02;2.00;;;;;;;15.52;100.00;100765.91;5094891;28;20036;-73
2023/10/10 14:25:28;;;;;;;10.95;2.30;;;;;;;15.47;100.00;100746.81;5081517;28;20551;-73
2023/10/10 14:27:54;;;;;;;10.30;2.30;;;;;;;15.61;100.00;100760.97;5099266;28;20024;-74
2023/10/10 14:30:23;;;;;;;12.55;2.15;;;;;;;15.65;100.00;100754.00;5094934;28;20556;-74
2023/10/10 14:32:55;;;;;;;14.45;2.40;;;;;;;15.54;100.00;100738.56;5094656;28;20118;-73
2023/10/10 14:35:23;;;;;;;11.48;2.05;;;;;;;15.52;100.00;100725.22;5094680;28;20106;-74
2023/10/10 14:37:56;;;;;;;11.70;2.22;;;;;;;15.60;100.00;100740.34;5110130;28;20063;-74
2023/10/10 14:40:23;;;;;;;11.48;1.88;;;;;;;15.51;100.00;100723.56;5077281;28;20044;-74
2023/10/10 14:42:52;;;;;;;9.50;2.08;;;;;;;15.54;100.00;100725.00;5094408;28;20016;-75
2023/10/10 14:45:19;;;;;;;14.75;2.22;;;;;;;15.47;100.00;100704.25;5093078;28;20553;-73
2023/10/10 14:47:45;;;;;;;14.05;2.60;;;;;;;15.58;100.00;100705.31;5092030;28;20607;-73